sensor_id;sensor_type;location;lat;lon;timestamp;P1;durP1;ratioP1;P2;durP2;ratioP2
24751;SDS011;27246;52.376;4.628;2023-09-19T00:04:48;5.45;;;1.30;;
24751;SDS011;27246;52.376;4.628;2023-09-19T00:09:51;6.93;;;1.50;;
24751;SDS011;27246;52.376;4.628;2023-09-19T00:14:53;4.97;;;1.30;;
24751;SDS011;27246;52.376;4.628;2023-09-19T00:19:54;5.10;;;1.55;;
24751;SDS011;27246;52.376;4.628;2023-09-19T00:24:56;5.32;;;1.60;;
24751;SDS011;27246;52.376;4.628;2023-09-19T00:29:58;7.22;;;1.70;;
24751;SDS011;27246;52.376;4.628;2023-09-19T00:34:59;3.97;;;1.30;;
24751;SDS011;27246;52.376;4.628;2023-09-19T00:40:02;7.85;;;1.92;;
24751;SDS011;27246;52.376;4.628;2023-09-19T00:45:07;8.15;;;1.38;;
24751;SDS011;27246;52.376;4.628;2023-09-19T00:50:13;4.63;;;1.27;;
24751;SDS011;27246;52.376;4.628;2023-09-19T00:55:19;5.97;;;1.30;;
24751;SDS011;27246;52.376;4.628;2023-09-19T01:00:21;8.70;;;1.80;;
24751;SDS011;27246;52.376;4.628;2023-09-19T01:05:25;5.25;;;1.88;;
24751;SDS011;27246;52.376;4.628;2023-09-19T01:10:27;5.57;;;1.42;;
24751;SDS011;27246;52.376;4.628;2023-09-19T01:15:38;6.28;;;1.45;;
24751;SDS011;27246;52.376;4.628;2023-09-19T01:26:43;7.25;;;1.50;;
24751;SDS011;27246;52.376;4.628;2023-09-19T01:31:51;11.95;;;2.03;;
24751;SDS011;27246;52.376;4.628;2023-09-19T01:36:56;13.20;;;2.20;;
24751;SDS011;27246;52.376;4.628;2023-09-19T01:42:09;6.20;;;1.73;;
24751;SDS011;27246;52.376;4.628;2023-09-19T01:47:28;4.20;;;1.70;;
24751;SDS011;27246;52.376;4.628;2023-09-19T01:53:06;5.97;;;1.85;;
24751;SDS011;27246;52.376;4.628;2023-09-19T01:58:27;7.40;;;1.75;;
24751;SDS011;27246;52.376;4.628;2023-09-19T02:03:40;5.75;;;1.58;;
24751;SDS011;27246;52.376;4.628;2023-09-19T02:08:43;7.70;;;2.00;;
24751;SDS011;27246;52.376;4.628;2023-09-19T02:13:46;7.22;;;1.67;;
24751;SDS011;27246;52.376;4.628;2023-09-19T02:18:49;10.52;;;1.70;;
24751;SDS011;27246;52.376;4.628;2023-09-19T02:23:52;8.13;;;2.45;;
24751;SDS011;27246;52.376;4.628;2023-09-19T02:28:54;12.13;;;1.85;;
24751;SDS011;27246;52.376;4.628;2023-09-19T02:33:55;6.47;;;1.80;;
24751;SDS011;27246;52.376;4.628;2023-09-19T02:38:57;8.13;;;1.85;;
24751;SDS011;27246;52.376;4.628;2023-09-19T02:43:59;6.65;;;1.75;;
24751;SDS011;27246;52.376;4.628;2023-09-19T02:49:03;8.05;;;1.67;;
24751;SDS011;27246;52.376;4.628;2023-09-19T02:54:08;6.30;;;1.65;;
24751;SDS011;27246;52.376;4.628;2023-09-19T02:59:10;7.63;;;1.52;;
24751;SDS011;27246;52.376;4.628;2023-09-19T03:04:12;5.75;;;1.60;;
24751;SDS011;27246;52.376;4.628;2023-09-19T03:09:14;9.00;;;2.08;;
24751;SDS011;27246;52.376;4.628;2023-09-19T03:14:17;5.82;;;1.63;;
24751;SDS011;27246;52.376;4.628;2023-09-19T03:19:22;6.43;;;1.40;;
24751;SDS011;27246;52.376;4.628;2023-09-19T03:24:25;9.35;;;2.17;;
24751;SDS011;27246;52.376;4.628;2023-09-19T03:29:27;7.20;;;1.55;;
24751;SDS011;27246;52.376;4.628;2023-09-19T03:34:29;3.33;;;1.35;;
24751;SDS011;27246;52.376;4.628;2023-09-19T03:39:32;6.35;;;1.63;;
24751;SDS011;27246;52.376;4.628;2023-09-19T03:44:34;5.07;;;1.60;;
24751;SDS011;27246;52.376;4.628;2023-09-19T03:49:35;8.50;;;1.67;;
24751;SDS011;27246;52.376;4.628;2023-09-19T03:54:38;6.32;;;1.50;;
24751;SDS011;27246;52.376;4.628;2023-09-19T03:59:42;5.53;;;2.28;;
24751;SDS011;27246;52.376;4.628;2023-09-19T04:04:44;14.40;;;2.20;;
24751;SDS011;27246;52.376;4.628;2023-09-19T04:09:46;7.57;;;1.70;;
24751;SDS011;27246;52.376;4.628;2023-09-19T04:14:49;6.30;;;1.88;;
24751;SDS011;27246;52.376;4.628;2023-09-19T04:19:51;8.30;;;1.67;;
24751;SDS011;27246;52.376;4.628;2023-09-19T04:24:54;5.53;;;2.00;;
24751;SDS011;27246;52.376;4.628;2023-09-19T04:29:55;8.90;;;1.80;;
24751;SDS011;27246;52.376;4.628;2023-09-19T04:35:00;7.50;;;1.27;;
24751;SDS011;27246;52.376;4.628;2023-09-19T04:40:06;5.90;;;1.60;;
24751;SDS011;27246;52.376;4.628;2023-09-19T04:45:14;5.28;;;1.38;;
24751;SDS011;27246;52.376;4.628;2023-09-19T04:50:16;6.60;;;2.17;;
24751;SDS011;27246;52.376;4.628;2023-09-19T04:55:20;6.70;;;1.75;;
24751;SDS011;27246;52.376;4.628;2023-09-19T05:05:26;5.40;;;1.30;;
24751;SDS011;27246;52.376;4.628;2023-09-19T05:10:28;7.82;;;1.70;;
24751;SDS011;27246;52.376;4.628;2023-09-19T05:15:30;6.80;;;1.67;;
24751;SDS011;27246;52.376;4.628;2023-09-19T05:20:32;8.48;;;1.90;;
24751;SDS011;27246;52.376;4.628;2023-09-19T05:25:36;11.30;;;2.00;;
24751;SDS011;27246;52.376;4.628;2023-09-19T05:30:40;6.20;;;1.80;;
24751;SDS011;27246;52.376;4.628;2023-09-19T05:35:50;4.00;;;2.47;;
24751;SDS011;27246;52.376;4.628;2023-09-19T05:40:51;6.18;;;1.80;;
24751;SDS011;27246;52.376;4.628;2023-09-19T05:45:53;6.07;;;2.22;;
24751;SDS011;27246;52.376;4.628;2023-09-19T05:50:57;6.35;;;1.70;;
24751;SDS011;27246;52.376;4.628;2023-09-19T05:55:59;7.47;;;2.20;;
24751;SDS011;27246;52.376;4.628;2023-09-19T06:01:02;8.90;;;2.13;;
24751;SDS011;27246;52.376;4.628;2023-09-19T06:06:05;7.85;;;1.77;;
24751;SDS011;27246;52.376;4.628;2023-09-19T06:11:07;7.75;;;1.77;;
24751;SDS011;27246;52.376;4.628;2023-09-19T06:16:10;11.32;;;2.85;;
24751;SDS011;27246;52.376;4.628;2023-09-19T06:21:12;7.32;;;2.33;;
24751;SDS011;27246;52.376;4.628;2023-09-19T06:26:13;12.00;;;1.90;;
24751;SDS011;27246;52.376;4.628;2023-09-19T06:31:15;7.30;;;2.30;;
24751;SDS011;27246;52.376;4.628;2023-09-19T06:36:17;12.40;;;2.60;;
24751;SDS011;27246;52.376;4.628;2023-09-19T06:41:23;9.88;;;2.60;;
24751;SDS011;27246;52.376;4.628;2023-09-19T06:46:26;9.88;;;2.08;;
24751;SDS011;27246;52.376;4.628;2023-09-19T06:51:34;7.10;;;2.05;;
24751;SDS011;27246;52.376;4.628;2023-09-19T06:56:36;7.22;;;2.38;;
24751;SDS011;27246;52.376;4.628;2023-09-19T07:01:37;5.75;;;2.05;;
24751;SDS011;27246;52.376;4.628;2023-09-19T07:06:39;11.82;;;2.42;;
24751;SDS011;27246;52.376;4.628;2023-09-19T07:11:41;11.25;;;2.47;;
24751;SDS011;27246;52.376;4.628;2023-09-19T07:16:44;9.60;;;2.08;;
24751;SDS011;27246;52.376;4.628;2023-09-19T07:21:46;13.02;;;2.25;;
24751;SDS011;27246;52.376;4.628;2023-09-19T07:26:49;9.75;;;2.15;;
24751;SDS011;27246;52.376;4.628;2023-09-19T07:31:52;12.45;;;1.92;;
24751;SDS011;27246;52.376;4.628;2023-09-19T07:36:55;10.65;;;3.03;;
24751;SDS011;27246;52.376;4.628;2023-09-19T07:41:58;15.35;;;2.67;;
24751;SDS011;27246;52.376;4.628;2023-09-19T07:46:59;10.93;;;2.35;;
24751;SDS011;27246;52.376;4.628;2023-09-19T07:52:04;8.23;;;2.35;;
24751;SDS011;27246;52.376;4.628;2023-09-19T07:57:06;9.98;;;2.50;;
24751;SDS011;27246;52.376;4.628;2023-09-19T08:02:08;11.00;;;2.78;;
24751;SDS011;27246;52.376;4.628;2023-09-19T08:07:17;12.33;;;3.00;;
24751;SDS011;27246;52.376;4.628;2023-09-19T08:12:25;10.05;;;3.30;;
24751;SDS011;27246;52.376;4.628;2023-09-19T08:17:27;9.32;;;2.40;;
24751;SDS011;27246;52.376;4.628;2023-09-19T08:22:29;9.75;;;2.42;;
24751;SDS011;27246;52.376;4.628;2023-09-19T08:27:33;8.48;;;2.05;;
24751;SDS011;27246;52.376;4.628;2023-09-19T08:32:36;7.75;;;2.15;;
24751;SDS011;27246;52.376;4.628;2023-09-19T08:37:37;5.65;;;1.90;;
24751;SDS011;27246;52.376;4.628;2023-09-19T08:42:52;9.55;;;1.90;;
24751;SDS011;27246;52.376;4.628;2023-09-19T08:53:33;7.63;;;1.90;;
24751;SDS011;27246;52.376;4.628;2023-09-19T08:58:57;7.63;;;2.20;;
24751;SDS011;27246;52.376;4.628;2023-09-19T09:04:01;12.40;;;3.05;;
24751;SDS011;27246;52.376;4.628;2023-09-19T09:09:05;11.45;;;3.25;;
24751;SDS011;27246;52.376;4.628;2023-09-19T09:14:07;8.48;;;2.33;;
24751;SDS011;27246;52.376;4.628;2023-09-19T09:19:09;13.48;;;2.88;;
24751;SDS011;27246;52.376;4.628;2023-09-19T09:24:30;11.48;;;2.22;;
24751;SDS011;27246;52.376;4.628;2023-09-19T09:29:42;14.38;;;3.20;;
24751;SDS011;27246;52.376;4.628;2023-09-19T09:34:52;6.93;;;3.25;;
24751;SDS011;27246;52.376;4.628;2023-09-19T09:40:00;10.00;;;2.70;;
24751;SDS011;27246;52.376;4.628;2023-09-19T09:45:21;18.67;;;3.20;;
24751;SDS011;27246;52.376;4.628;2023-09-19T09:50:38;9.52;;;3.80;;
24751;SDS011;27246;52.376;4.628;2023-09-19T10:01:09;7.15;;;2.30;;
24751;SDS011;27246;52.376;4.628;2023-09-19T10:06:12;9.77;;;3.10;;
24751;SDS011;27246;52.376;4.628;2023-09-19T10:11:24;10.95;;;3.65;;
24751;SDS011;27246;52.376;4.628;2023-09-19T10:16:32;13.27;;;3.33;;
24751;SDS011;27246;52.376;4.628;2023-09-19T10:21:36;11.30;;;2.97;;
24751;SDS011;27246;52.376;4.628;2023-09-19T10:26:41;9.30;;;2.75;;
24751;SDS011;27246;52.376;4.628;2023-09-19T10:31:46;9.27;;;2.30;;
24751;SDS011;27246;52.376;4.628;2023-09-19T10:36:49;9.43;;;1.80;;
24751;SDS011;27246;52.376;4.628;2023-09-19T10:41:53;10.35;;;2.15;;
24751;SDS011;27246;52.376;4.628;2023-09-19T10:47:00;10.00;;;2.63;;
24751;SDS011;27246;52.376;4.628;2023-09-19T10:52:04;10.73;;;2.15;;
24751;SDS011;27246;52.376;4.628;2023-09-19T10:57:09;6.57;;;2.25;;
24751;SDS011;27246;52.376;4.628;2023-09-19T11:02:17;13.40;;;2.25;;
24751;SDS011;27246;52.376;4.628;2023-09-19T11:07:23;7.75;;;1.85;;
24751;SDS011;27246;52.376;4.628;2023-09-19T11:17:38;11.43;;;2.65;;
24751;SDS011;27246;52.376;4.628;2023-09-19T11:43:47;7.95;;;2.30;;
24751;SDS011;27246;52.376;4.628;2023-09-19T11:48:55;7.83;;;2.20;;
24751;SDS011;27246;52.376;4.628;2023-09-19T11:54:11;7.50;;;1.67;;
24751;SDS011;27246;52.376;4.628;2023-09-19T11:59:20;8.38;;;1.80;;
24751;SDS011;27246;52.376;4.628;2023-09-19T12:04:35;6.80;;;1.83;;
24751;SDS011;27246;52.376;4.628;2023-09-19T12:09:46;4.88;;;1.40;;
24751;SDS011;27246;52.376;4.628;2023-09-19T12:14:49;7.20;;;2.25;;
24751;SDS011;27246;52.376;4.628;2023-09-19T12:19:52;6.72;;;1.90;;
24751;SDS011;27246;52.376;4.628;2023-09-19T12:25:03;8.77;;;1.80;;
24751;SDS011;27246;52.376;4.628;2023-09-19T12:30:08;5.10;;;1.58;;
24751;SDS011;27246;52.376;4.628;2023-09-19T12:35:29;7.97;;;2.10;;
24751;SDS011;27246;52.376;4.628;2023-09-19T12:40:36;6.00;;;2.03;;
24751;SDS011;27246;52.376;4.628;2023-09-19T12:45:39;9.88;;;2.20;;
24751;SDS011;27246;52.376;4.628;2023-09-19T12:51:06;9.32;;;2.45;;
24751;SDS011;27246;52.376;4.628;2023-09-19T12:56:17;10.98;;;2.38;;
24751;SDS011;27246;52.376;4.628;2023-09-19T13:01:20;11.98;;;2.90;;
24751;SDS011;27246;52.376;4.628;2023-09-19T13:06:36;14.38;;;2.88;;
24751;SDS011;27246;52.376;4.628;2023-09-19T13:11:44;10.60;;;3.75;;
24751;SDS011;27246;52.376;4.628;2023-09-19T13:16:53;14.20;;;2.75;;
24751;SDS011;27246;52.376;4.628;2023-09-19T13:22:35;13.93;;;3.78;;
24751;SDS011;27246;52.376;4.628;2023-09-19T13:27:40;7.63;;;2.63;;
24751;SDS011;27246;52.376;4.628;2023-09-19T13:32:43;12.13;;;3.22;;
24751;SDS011;27246;52.376;4.628;2023-09-19T13:37:46;14.23;;;3.63;;
24751;SDS011;27246;52.376;4.628;2023-09-19T13:42:53;10.73;;;3.45;;
24751;SDS011;27246;52.376;4.628;2023-09-19T13:47:55;14.38;;;3.65;;
24751;SDS011;27246;52.376;4.628;2023-09-19T13:52:57;13.15;;;3.72;;
24751;SDS011;27246;52.376;4.628;2023-09-19T13:58:02;11.73;;;3.72;;
24751;SDS011;27246;52.376;4.628;2023-09-19T14:03:04;13.13;;;3.67;;
24751;SDS011;27246;52.376;4.628;2023-09-19T14:08:06;17.00;;;4.47;;
24751;SDS011;27246;52.376;4.628;2023-09-19T14:13:08;18.92;;;4.88;;
24751;SDS011;27246;52.376;4.628;2023-09-19T14:18:09;15.05;;;3.92;;
24751;SDS011;27246;52.376;4.628;2023-09-19T14:23:11;17.67;;;5.05;;
24751;SDS011;27246;52.376;4.628;2023-09-19T14:28:13;11.68;;;3.70;;
24751;SDS011;27246;52.376;4.628;2023-09-19T14:33:15;20.45;;;5.55;;
24751;SDS011;27246;52.376;4.628;2023-09-19T14:38:17;18.88;;;5.25;;
24751;SDS011;27246;52.376;4.628;2023-09-19T14:43:21;17.40;;;4.85;;
24751;SDS011;27246;52.376;4.628;2023-09-19T14:48:23;20.35;;;5.65;;
24751;SDS011;27246;52.376;4.628;2023-09-19T14:53:27;15.35;;;4.32;;
24751;SDS011;27246;52.376;4.628;2023-09-19T14:58:30;13.48;;;4.18;;
24751;SDS011;27246;52.376;4.628;2023-09-19T15:03:35;16.42;;;4.10;;
24751;SDS011;27246;52.376;4.628;2023-09-19T15:08:37;13.00;;;3.53;;
24751;SDS011;27246;52.376;4.628;2023-09-19T15:13:40;13.63;;;4.07;;
24751;SDS011;27246;52.376;4.628;2023-09-19T15:18:44;17.85;;;4.82;;
24751;SDS011;27246;52.376;4.628;2023-09-19T15:23:50;19.60;;;5.22;;
24751;SDS011;27246;52.376;4.628;2023-09-19T15:28:52;18.88;;;4.68;;
24751;SDS011;27246;52.376;4.628;2023-09-19T15:33:55;16.23;;;4.07;;
24751;SDS011;27246;52.376;4.628;2023-09-19T15:39:01;12.52;;;3.65;;
24751;SDS011;27246;52.376;4.628;2023-09-19T15:44:11;14.48;;;3.95;;
24751;SDS011;27246;52.376;4.628;2023-09-19T15:49:15;15.68;;;4.50;;
24751;SDS011;27246;52.376;4.628;2023-09-19T15:54:17;12.75;;;4.68;;
24751;SDS011;27246;52.376;4.628;2023-09-19T15:59:19;15.23;;;3.97;;
24751;SDS011;27246;52.376;4.628;2023-09-19T16:04:21;14.00;;;4.55;;
24751;SDS011;27246;52.376;4.628;2023-09-19T16:09:25;16.88;;;4.68;;
24751;SDS011;27246;52.376;4.628;2023-09-19T16:14:27;17.60;;;4.35;;
24751;SDS011;27246;52.376;4.628;2023-09-19T16:19:30;16.75;;;4.32;;
24751;SDS011;27246;52.376;4.628;2023-09-19T16:24:33;15.35;;;4.97;;
24751;SDS011;27246;52.376;4.628;2023-09-19T16:29:35;13.57;;;4.63;;
24751;SDS011;27246;52.376;4.628;2023-09-19T16:34:37;15.23;;;4.90;;
24751;SDS011;27246;52.376;4.628;2023-09-19T16:39:39;16.98;;;4.63;;
24751;SDS011;27246;52.376;4.628;2023-09-19T16:44:41;13.45;;;4.03;;
24751;SDS011;27246;52.376;4.628;2023-09-19T16:49:42;13.65;;;3.85;;
24751;SDS011;27246;52.376;4.628;2023-09-19T16:54:44;9.40;;;3.28;;
24751;SDS011;27246;52.376;4.628;2023-09-19T16:59:46;16.10;;;4.38;;
24751;SDS011;27246;52.376;4.628;2023-09-19T17:04:48;15.85;;;3.35;;
24751;SDS011;27246;52.376;4.628;2023-09-19T17:09:53;10.07;;;3.58;;
24751;SDS011;27246;52.376;4.628;2023-09-19T17:14:56;10.02;;;3.42;;
24751;SDS011;27246;52.376;4.628;2023-09-19T17:19:59;10.57;;;3.83;;
24751;SDS011;27246;52.376;4.628;2023-09-19T17:25:01;8.40;;;2.95;;
24751;SDS011;27246;52.376;4.628;2023-09-19T17:30:04;9.15;;;2.85;;
24751;SDS011;27246;52.376;4.628;2023-09-19T17:35:09;12.02;;;3.40;;
24751;SDS011;27246;52.376;4.628;2023-09-19T17:40:11;6.93;;;2.50;;
24751;SDS011;27246;52.376;4.628;2023-09-19T17:45:14;8.07;;;2.63;;
24751;SDS011;27246;52.376;4.628;2023-09-19T17:50:17;6.53;;;2.40;;
24751;SDS011;27246;52.376;4.628;2023-09-19T17:55:19;7.35;;;2.40;;
24751;SDS011;27246;52.376;4.628;2023-09-19T18:00:21;8.48;;;2.95;;
24751;SDS011;27246;52.376;4.628;2023-09-19T18:05:23;6.43;;;2.47;;
24751;SDS011;27246;52.376;4.628;2023-09-19T18:10:26;7.22;;;2.97;;
24751;SDS011;27246;52.376;4.628;2023-09-19T18:15:27;7.47;;;2.45;;
24751;SDS011;27246;52.376;4.628;2023-09-19T18:20:34;7.65;;;1.90;;
24751;SDS011;27246;52.376;4.628;2023-09-19T18:25:38;6.32;;;2.70;;
24751;SDS011;27246;52.376;4.628;2023-09-19T18:30:40;5.18;;;2.60;;
24751;SDS011;27246;52.376;4.628;2023-09-19T18:35:42;3.50;;;2.03;;
24751;SDS011;27246;52.376;4.628;2023-09-19T18:40:44;6.80;;;2.28;;
24751;SDS011;27246;52.376;4.628;2023-09-19T18:45:54;3.65;;;2.28;;
24751;SDS011;27246;52.376;4.628;2023-09-19T18:51:03;5.63;;;2.30;;
24751;SDS011;27246;52.376;4.628;2023-09-19T18:56:10;5.00;;;2.90;;
24751;SDS011;27246;52.376;4.628;2023-09-19T19:01:16;6.28;;;2.80;;
24751;SDS011;27246;52.376;4.628;2023-09-19T19:06:20;5.45;;;2.55;;
24751;SDS011;27246;52.376;4.628;2023-09-19T19:11:23;5.85;;;2.75;;
24751;SDS011;27246;52.376;4.628;2023-09-19T19:16:30;8.63;;;3.28;;
24751;SDS011;27246;52.376;4.628;2023-09-19T19:21:33;6.57;;;2.85;;
24751;SDS011;27246;52.376;4.628;2023-09-19T19:26:35;7.32;;;3.38;;
24751;SDS011;27246;52.376;4.628;2023-09-19T19:31:37;6.38;;;3.45;;
24751;SDS011;27246;52.376;4.628;2023-09-19T19:36:40;4.65;;;2.58;;
24751;SDS011;27246;52.376;4.628;2023-09-19T19:41:41;6.88;;;2.97;;
24751;SDS011;27246;52.376;4.628;2023-09-19T19:46:45;8.00;;;3.53;;
24751;SDS011;27246;52.376;4.628;2023-09-19T19:51:47;10.65;;;4.00;;
24751;SDS011;27246;52.376;4.628;2023-09-19T19:56:51;11.57;;;3.75;;
24751;SDS011;27246;52.376;4.628;2023-09-19T20:01:53;8.57;;;3.35;;
24751;SDS011;27246;52.376;4.628;2023-09-19T20:06:55;10.18;;;3.67;;
24751;SDS011;27246;52.376;4.628;2023-09-19T20:11:56;10.77;;;4.15;;
24751;SDS011;27246;52.376;4.628;2023-09-19T20:16:59;8.82;;;3.53;;
24751;SDS011;27246;52.376;4.628;2023-09-19T20:22:01;7.60;;;3.00;;
24751;SDS011;27246;52.376;4.628;2023-09-19T20:27:07;9.00;;;3.80;;
24751;SDS011;27246;52.376;4.628;2023-09-19T20:32:08;9.85;;;2.60;;
24751;SDS011;27246;52.376;4.628;2023-09-19T20:37:10;7.13;;;2.90;;
24751;SDS011;27246;52.376;4.628;2023-09-19T20:42:12;9.55;;;3.28;;
24751;SDS011;27246;52.376;4.628;2023-09-19T20:47:14;11.10;;;3.20;;
24751;SDS011;27246;52.376;4.628;2023-09-19T20:52:35;4.82;;;2.55;;
24751;SDS011;27246;52.376;4.628;2023-09-19T20:57:37;8.57;;;3.95;;
24751;SDS011;27246;52.376;4.628;2023-09-19T21:02:39;9.60;;;3.13;;
24751;SDS011;27246;52.376;4.628;2023-09-19T21:07:41;4.50;;;2.53;;
24751;SDS011;27246;52.376;4.628;2023-09-19T21:12:44;11.07;;;3.70;;
24751;SDS011;27246;52.376;4.628;2023-09-19T21:17:46;7.88;;;3.20;;
24751;SDS011;27246;52.376;4.628;2023-09-19T21:22:49;11.50;;;3.42;;
24751;SDS011;27246;52.376;4.628;2023-09-19T21:27:51;12.30;;;3.58;;
24751;SDS011;27246;52.376;4.628;2023-09-19T21:32:53;12.35;;;3.17;;
24751;SDS011;27246;52.376;4.628;2023-09-19T21:37:55;10.05;;;3.58;;
24751;SDS011;27246;52.376;4.628;2023-09-19T21:42:57;13.30;;;4.35;;
24751;SDS011;27246;52.376;4.628;2023-09-19T21:47:58;10.80;;;3.28;;
24751;SDS011;27246;52.376;4.628;2023-09-19T21:53:00;15.23;;;3.92;;
24751;SDS011;27246;52.376;4.628;2023-09-19T21:58:02;9.00;;;3.08;;
24751;SDS011;27246;52.376;4.628;2023-09-19T22:03:04;7.28;;;3.63;;
24751;SDS011;27246;52.376;4.628;2023-09-19T22:08:10;7.88;;;3.35;;
24751;SDS011;27246;52.376;4.628;2023-09-19T22:13:13;11.70;;;3.80;;
24751;SDS011;27246;52.376;4.628;2023-09-19T22:18:21;11.55;;;3.05;;
24751;SDS011;27246;52.376;4.628;2023-09-19T22:23:23;12.02;;;3.55;;
24751;SDS011;27246;52.376;4.628;2023-09-19T22:28:36;11.02;;;3.00;;
24751;SDS011;27246;52.376;4.628;2023-09-19T22:33:42;8.63;;;3.70;;
24751;SDS011;27246;52.376;4.628;2023-09-19T22:38:44;11.02;;;3.20;;
24751;SDS011;27246;52.376;4.628;2023-09-19T22:43:46;11.63;;;3.58;;
24751;SDS011;27246;52.376;4.628;2023-09-19T22:48:50;9.13;;;3.40;;
24751;SDS011;27246;52.376;4.628;2023-09-19T22:53:52;11.48;;;3.95;;
24751;SDS011;27246;52.376;4.628;2023-09-19T22:59:02;11.13;;;4.00;;
24751;SDS011;27246;52.376;4.628;2023-09-19T23:04:07;10.05;;;3.88;;
24751;SDS011;27246;52.376;4.628;2023-09-19T23:09:12;12.35;;;4.53;;
24751;SDS011;27246;52.376;4.628;2023-09-19T23:14:23;9.35;;;3.85;;
24751;SDS011;27246;52.376;4.628;2023-09-19T23:19:31;8.48;;;3.60;;
24751;SDS011;27246;52.376;4.628;2023-09-19T23:24:33;9.10;;;3.42;;
24751;SDS011;27246;52.376;4.628;2023-09-19T23:29:39;14.73;;;3.92;;
24751;SDS011;27246;52.376;4.628;2023-09-19T23:34:42;9.63;;;4.35;;
24751;SDS011;27246;52.376;4.628;2023-09-19T23:39:44;13.05;;;4.75;;
24751;SDS011;27246;52.376;4.628;2023-09-19T23:44:50;11.02;;;4.22;;
24751;SDS011;27246;52.376;4.628;2023-09-19T23:49:52;13.10;;;4.05;;
24751;SDS011;27246;52.376;4.628;2023-09-19T23:54:54;13.60;;;3.80;;
